.
WxDataArchive / Data Records for 2014-08-31
2014-08-30 August 2014 2014-09-01

Data Records for Sunday, 31 August 2014

Time	Temp	Chill	HIndex	Humid	Dewpt	 Wind 	HiWind	WindDir	Rain 	Barom
-----	----	-----	------	-----	-----	------	------	-------	-----	-----
00:00	74.6	74.6	74.6	84	69.4	0	2	68	0.00	29.915 
00:05	74.6	74.6	74.6	85	69.8	0	1	68	0.00	29.915 
00:10	74.6	74.6	74.6	85	69.8	0	2	45	0.00	29.915 
00:15	74.6	74.6	74.6	85	69.8	0	1	45	0.00	29.910 
00:20	74.6	74.6	74.6	85	69.8	0	2	45	0.00	29.910 
00:25	74.6	74.6	74.6	85	69.8	0	1	45	0.00	29.910 
00:30	74.6	74.6	74.6	85	69.8	0	1	45	0.00	29.912 
00:35	74.6	74.6	74.6	85	69.8	0	1	45	0.00	29.912 
00:40	74.4	74.4	74.4	85	69.6	0	2	45	0.00	29.912 
00:45	74.4	74.4	74.4	85	69.6	0	1	45	0.00	29.913 
00:50	74.4	74.4	74.4	85	69.6	0	2	45	0.00	29.913 
00:55	74.2	74.2	74.2	85	69.4	0	2	270	0.00	29.913 
01:00	74.2	74.2	74.2	85	69.4	0	1	270	0.00	29.910 
01:05	74.0	74.0	74.0	86	69.5	0	1	270	0.00	29.910 
01:10	74.0	74.0	74.0	86	69.5	0	3	270	0.00	29.910 
01:15	73.9	73.9	73.9	86	69.4	0	2	315	0.00	29.909 
01:20	73.9	73.9	73.9	86	69.4	0	3	315	0.00	29.909 
01:25	73.9	73.9	73.9	86	69.4	0	1	292	0.00	29.909 
01:30	73.7	73.7	73.7	86	69.2	0	1	292	0.00	29.911 
01:35	73.7	73.7	73.7	86	69.2	0	3	292	0.00	29.911 
01:40	73.7	73.7	73.7	86	69.2	0	1	292	0.00	29.911 
01:45	73.7	73.7	73.7	86	69.2	0	2	292	0.00	29.917 
01:50	73.7	73.7	73.7	86	69.2	0	1	292	0.00	29.917 
01:55	73.7	73.7	73.7	86	69.2	0	1	292	0.00	29.917 
02:00	73.7	73.7	73.7	86	69.2	0	2	292	0.00	29.913 
02:05	73.7	73.7	73.7	86	69.2	0	1	292	0.00	29.913 
02:10	73.7	73.7	73.7	86	69.2	0	2	292	0.00	29.913 
02:15	73.7	73.7	73.7	86	69.2	0	1	292	0.00	29.909 
02:20	73.5	73.5	73.5	86	69.0	0	1	292	0.00	29.909 
02:25	73.5	73.5	73.5	86	69.0	0	1	292	0.00	29.909 
02:30	73.5	73.5	73.5	86	69.0	0	2	292	0.00	29.909 
02:35	73.3	73.3	73.3	86	68.8	0	1	292	0.00	29.909 
02:40	73.3	73.3	73.3	86	68.8	0	1	292	0.00	29.909 
02:45	73.3	73.3	73.3	86	68.8	0	2	292	0.00	29.910 
02:50	73.3	73.3	73.3	86	68.8	0	2	292	0.00	29.910 
02:55	73.3	73.3	73.3	86	68.8	0	3	292	0.00	29.910 
03:00	73.2	73.2	73.2	86	68.7	0	2	292	0.00	29.911 
03:05	73.2	73.2	73.2	86	68.7	0	1	270	0.00	29.911 
03:10	73.2	73.2	73.2	86	68.7	0	2	270	0.00	29.911 
03:15	73.2	73.2	73.2	86	68.7	0	1	270	0.00	29.912 
03:20	73.2	73.2	73.2	86	68.7	0	2	270	0.00	29.912 
03:25	73.0	73.0	73.0	86	68.6	0	2	270	0.00	29.912 
03:30	73.0	73.0	73.0	86	68.6	0	1	270	0.00	29.909 
03:35	73.0	73.0	73.0	86	68.6	0	1	270	0.00	29.909 
03:40	72.8	72.8	72.8	86	68.4	0	2	270	0.00	29.909 
03:45	72.8	72.8	72.8	86	68.4	0	1	270	0.00	29.910 
03:50	72.8	72.8	72.8	86	68.4	0	2	270	0.00	29.910 
03:55	72.7	72.7	72.7	86	68.3	0	3	338	0.00	29.910 
04:00	72.7	72.7	72.7	86	68.3	0	2	270	0.00	29.904 
04:05	72.5	72.5	72.5	86	68.1	0	2	338	0.00	29.904 
04:10	72.5	72.5	72.5	86	68.1	0	3	338	0.00	29.904 
04:15	72.3	72.3	72.3	86	67.9	0	1	338	0.00	29.911 
04:20	72.3	72.3	72.3	86	67.9	0	1	338	0.00	29.911 
04:25	72.1	72.1	72.1	87	68.0	0	1	338	0.00	29.911 
04:30	72.1	72.1	72.1	87	68.0	0	1	338	0.00	29.911 
04:35	72.1	72.1	72.1	87	68.0	0	1	338	0.00	29.911 
04:40	72.1	72.1	72.1	87	68.0	0	1	338	0.00	29.911 
04:45	72.1	72.1	72.1	87	68.0	0	0	---	0.00	29.910 
04:50	72.1	72.1	72.1	87	68.0	0	1	338	0.00	29.910 
04:55	72.1	72.1	72.1	87	68.0	0	3	338	0.00	29.910 
05:00	72.1	72.1	72.1	86	67.7	0	2	338	0.00	29.913 
05:05	72.1	72.1	72.1	86	67.7	1	5	292	0.00	29.913 
05:10	72.1	72.1	72.1	85	67.3	0	2	292	0.00	29.913 
05:15	72.0	72.0	72.0	85	67.2	0	1	292	0.00	29.900 
05:20	72.0	72.0	72.0	85	67.2	0	2	315	0.00	29.900 
05:25	71.6	71.6	71.6	85	66.8	0	2	315	0.00	29.900 
05:30	71.5	71.5	71.5	86	67.1	0	2	315	0.00	29.912 
05:35	71.1	71.1	71.1	87	67.0	0	1	315	0.00	29.912 
05:40	70.9	70.9	70.9	87	66.8	0	3	315	0.00	29.912 
05:45	70.6	70.6	70.6	88	66.9	0	3	315	0.00	29.912 
05:50	70.4	70.4	70.4	88	66.7	0	1	315	0.00	29.912 
05:55	70.3	70.3	70.3	88	66.6	0	2	315	0.00	29.912 
06:00	70.3	70.3	70.3	88	66.6	0	1	315	0.00	29.909 
06:05	70.1	70.1	70.1	89	66.7	0	1	315	0.00	29.909 
06:10	69.9	69.9	69.9	89	66.5	0	1	315	0.00	29.909 
06:15	69.9	69.9	69.9	89	66.5	0	1	315	0.00	29.897 
06:20	69.8	69.8	69.8	89	66.4	0	1	315	0.01	29.897 
06:25	69.8	69.8	69.8	90	66.7	0	1	315	0.00	29.897 
06:30	69.6	69.6	69.6	90	66.5	0	0	---	0.00	29.903 
06:35	69.4	69.4	69.4	91	66.7	0	0	---	0.00	29.903 
06:40	69.3	69.3	69.3	91	66.6	0	0	---	0.00	29.903 
06:45	69.3	69.3	69.3	91	66.6	0	0	---	0.00	29.916 
06:50	69.3	69.3	69.3	91	66.6	0	1	315	0.00	29.916 
06:55	69.1	69.1	69.1	92	66.7	0	0	---	0.00	29.916 
07:00	69.1	69.1	69.1	92	66.7	0	1	315	0.00	29.931 
07:05	68.9	68.9	68.9	92	66.5	0	0	---	0.00	29.931 
07:10	68.9	68.9	68.9	92	66.5	0	0	---	0.00	29.931 
07:15	68.8	68.8	68.8	92	66.4	0	0	---	0.00	29.934 
07:20	68.8	68.8	68.8	92	66.4	0	0	---	0.00	29.934 
07:25	68.6	68.6	68.6	92	66.2	0	0	---	0.00	29.934 
07:30	68.6	68.6	68.6	92	66.2	0	0	---	0.00	29.937 
07:35	68.6	68.6	68.6	92	66.2	0	0	---	0.00	29.937 
07:40	68.6	68.6	68.6	92	66.2	0	0	---	0.00	29.937 
07:45	68.6	68.6	68.6	92	66.2	0	0	---	0.00	29.945 
07:50	68.8	68.8	68.8	93	66.7	0	0	---	0.00	29.945 
07:55	68.8	68.8	68.8	93	66.7	0	0	---	0.00	29.945 
08:00	68.8	68.8	68.8	93	66.7	0	0	---	0.00	29.943 
08:05	68.9	68.9	68.9	93	66.8	0	0	---	0.00	29.943 
08:10	69.1	69.1	69.1	93	67.0	0	0	---	0.00	29.943 
08:15	69.1	69.1	69.1	93	67.0	0	0	---	0.00	29.950 
08:20	69.3	69.3	69.3	93	67.2	0	0	---	0.00	29.950 
08:25	69.4	69.4	69.4	93	67.3	0	0	---	0.00	29.950 
08:30	69.4	69.4	69.4	93	67.3	0	0	---	0.00	29.951 
08:35	69.6	69.6	69.6	93	67.5	0	0	---	0.00	29.951 
08:40	69.8	69.8	69.8	93	67.7	0	0	---	0.00	29.951 
08:45	69.9	69.9	69.9	93	67.8	0	0	---	0.00	29.948 
08:50	70.1	70.1	70.1	93	68.0	0	1	180	0.00	29.948 
08:55	70.3	70.3	70.3	93	68.2	0	0	---	0.00	29.948 
09:00	70.4	70.4	70.4	93	68.3	0	0	---	0.00	29.949 
09:05	70.8	70.8	70.8	93	68.7	0	1	180	0.00	29.949 
09:10	70.9	70.9	70.9	93	68.8	0	1	180	0.00	29.949 
09:15	71.1	71.1	71.1	92	68.7	0	1	180	0.00	29.947 
09:20	71.1	71.1	71.1	92	68.7	0	2	180	0.00	29.947 
09:25	71.1	71.1	71.1	92	68.7	0	1	180	0.00	29.947 
09:30	71.3	71.3	71.3	92	68.8	0	1	180	0.00	29.948 
09:35	71.5	71.5	71.5	91	68.7	0	1	180	0.00	29.948 
09:40	71.6	71.6	71.6	90	68.5	0	1	180	0.00	29.948 
09:45	71.6	71.6	71.6	90	68.5	0	1	180	0.00	29.949 
09:50	72.0	72.0	72.0	89	68.6	0	1	180	0.00	29.949 
09:55	72.3	72.3	72.3	89	68.9	0	1	180	0.00	29.949 
10:00	72.7	72.7	72.7	87	68.6	0	2	180	0.00	29.947 
10:05	73.2	73.2	73.2	86	68.7	0	2	180	0.00	29.947 
10:10	73.3	73.3	73.3	85	68.5	0	2	202	0.00	29.947 
10:15	73.3	73.3	73.3	85	68.5	0	1	202	0.00	29.948 
10:20	73.5	73.5	73.5	86	69.0	0	2	202	0.00	29.948 
10:25	73.7	73.7	73.7	85	68.9	0	1	202	0.00	29.948 
10:30	73.9	73.9	73.9	85	69.1	0	1	202	0.00	29.953 
10:35	73.9	73.9	73.9	85	69.1	0	1	202	0.00	29.953 
10:40	74.0	74.0	74.0	85	69.2	0	2	202	0.00	29.953 
10:45	74.2	74.2	74.2	84	69.0	0	1	202	0.00	29.952 
10:50	74.6	74.6	74.6	84	69.4	0	1	202	0.00	29.952 
10:55	74.7	74.7	74.7	84	69.5	0	1	202	0.00	29.952 
11:00	74.9	74.9	74.9	83	69.4	0	1	202	0.00	29.946 
11:05	74.9	74.9	74.9	83	69.4	0	1	202	0.00	29.946 
11:10	75.3	75.3	75.6	83	69.8	0	2	202	0.00	29.946 
11:15	75.6	75.6	76.2	82	69.7	0	2	202	0.00	29.946 
11:20	76.0	76.0	76.8	82	70.1	0	1	202	0.00	29.946 
11:25	76.0	76.0	76.9	81	69.7	1	3	225	0.00	29.946 
11:30	75.8	75.8	76.6	81	69.5	0	1	225	0.00	29.945 
11:35	75.8	75.8	76.6	81	69.5	0	2	225	0.00	29.945 
11:40	75.8	75.8	76.6	81	69.5	0	2	225	0.00	29.945 
11:45	75.4	75.4	76.0	81	69.1	0	2	225	0.00	29.946 
11:50	75.4	75.4	76.0	81	69.1	0	3	225	0.00	29.946 
11:55	75.3	75.3	75.9	81	69.1	0	2	225	0.00	29.946 
12:00	75.1	75.1	75.5	82	69.2	0	2	225	0.00	29.946 
12:05	75.1	75.1	75.5	82	69.2	0	1	225	0.00	29.946 
12:10	75.1	75.1	75.5	82	69.2	0	0	---	0.00	29.946 
12:15	74.9	74.9	74.9	83	69.4	0	1	225	0.00	29.950 
12:20	74.9	74.9	74.9	83	69.4	0	0	---	0.00	29.950 
12:25	75.3	75.3	75.6	83	69.8	0	1	225	0.00	29.950 
12:30	75.4	75.4	75.8	83	69.9	0	1	225	0.00	29.950 
12:35	75.6	75.6	76.2	82	69.7	0	2	225	0.00	29.950 
12:40	75.6	75.6	76.3	81	69.3	1	3	248	0.00	29.950 
12:45	76.0	76.0	76.8	82	70.1	0	1	248	0.00	29.948 
12:50	76.0	76.0	76.9	81	69.7	0	2	248	0.00	29.948 
12:55	76.1	76.1	77.1	81	69.8	0	2	248	0.00	29.948 
13:00	76.3	76.3	77.4	81	70.0	0	1	248	0.00	29.946 
13:05	76.7	76.7	78.1	80	70.0	0	3	248	0.00	29.946 
13:10	76.8	76.8	78.2	80	70.1	0	2	248	0.00	29.946 
13:15	76.8	76.8	78.3	79	69.8	0	1	248	0.00	29.942 
13:20	77.2	77.2	78.9	81	70.9	0	1	248	0.00	29.942 
13:25	77.4	77.4	79.2	80	70.7	0	2	248	0.00	29.942 
13:30	77.4	77.4	79.3	79	70.4	0	2	270	0.00	29.935 
13:35	77.6	77.6	79.6	79	70.6	0	2	270	0.00	29.935 
13:40	78.1	78.1	80.4	78	70.7	0	3	270	0.00	29.935 
13:45	78.6	78.6	81.2	76	70.4	0	2	270	0.00	29.932 
13:50	79.4	79.4	82.3	73	70.0	0	2	292	0.00	29.932 
13:55	79.4	79.4	82.1	71	69.2	0	2	292	0.00	29.932 
14:00	79.6	79.6	82.5	72	69.8	0	1	292	0.00	29.928 
14:05	79.9	79.9	82.8	70	69.2	0	2	292	0.00	29.928 
14:10	80.1	80.1	83.0	69	69.0	0	1	292	0.00	29.928 
14:15	80.1	80.1	83.1	70	69.4	0	3	292	0.00	29.929 
14:20	80.1	80.1	83.0	69	69.0	0	2	292	0.00	29.929 
14:25	80.3	80.3	83.3	69	69.2	0	2	292	0.00	29.929 
14:30	80.3	80.3	83.2	68	68.8	0	2	292	0.00	29.926 
14:35	80.5	80.5	83.9	71	70.2	0	1	292	0.00	29.926 
14:40	81.1	81.1	84.6	69	69.9	0	2	292	0.00	29.926 
14:45	81.4	81.4	84.8	67	69.4	1	3	292	0.00	29.924 
14:50	81.6	81.6	85.5	69	70.4	0	2	292	0.00	29.924 
14:55	82.2	82.2	86.1	67	70.1	0	4	292	0.00	29.924 
15:00	82.4	82.4	86.3	66	69.9	0	2	22	0.00	29.918 
15:05	82.8	82.8	86.7	65	69.8	0	2	248	0.00	29.918 
15:10	82.6	82.6	86.4	65	69.6	0	2	248	0.00	29.918 
15:15	82.8	82.8	86.7	65	69.8	0	2	270	0.00	29.910 
15:20	83.4	83.4	87.3	63	69.5	0	2	270	0.00	29.910 
15:25	83.6	83.6	87.6	63	69.6	0	2	270	0.00	29.910 
15:30	83.4	83.4	87.3	63	69.5	0	1	270	0.00	29.909 
15:35	82.6	82.6	86.4	65	69.6	0	2	270	0.00	29.909 
15:40	82.4	82.4	86.3	66	69.9	0	1	270	0.00	29.909 
15:45	82.4	82.4	85.8	64	69.0	0	3	270	0.00	29.905 
15:50	82.6	82.6	85.9	63	68.7	1	3	270	0.00	29.905 
15:55	83.2	83.2	86.9	63	69.3	0	2	270	0.00	29.905 
16:00	83.6	83.6	86.6	59	67.7	0	2	270	0.00	29.899 
16:05	83.4	83.4	86.8	61	68.5	0	2	270	0.00	29.899 
16:10	83.2	83.2	86.7	62	68.8	0	2	270	0.00	29.899 
16:15	83.2	83.2	86.5	61	68.3	1	4	270	0.00	29.897 
16:20	82.6	82.6	85.7	62	68.2	0	3	270	0.00	29.897 
16:25	82.4	82.4	85.6	63	68.5	0	1	270	0.00	29.897 
16:30	82.8	82.8	86.3	63	68.9	0	3	270	0.00	29.895 
16:35	83.4	83.4	86.3	59	67.5	0	2	270	0.00	29.895 
16:40	83.2	83.2	86.2	60	67.8	0	2	270	0.00	29.895 
16:45	83.2	83.2	86.7	62	68.8	0	3	270	0.00	29.895 
16:50	83.4	83.4	86.5	60	68.0	0	2	270	0.00	29.895 
16:55	83.4	83.4	86.8	61	68.5	0	1	270	0.00	29.895 
17:00	83.4	83.4	86.5	60	68.0	0	2	270	0.00	29.896 
17:05	83.0	83.0	86.1	61	68.1	0	2	270	0.00	29.896 
17:10	83.2	83.2	86.7	62	68.8	0	1	270	0.00	29.896 
17:15	83.2	83.2	86.5	61	68.3	0	2	270	0.00	29.896 
17:20	83.2	83.2	86.5	61	68.3	0	1	270	0.00	29.896 
17:25	83.0	83.0	86.4	62	68.6	0	3	270	0.00	29.896 
17:30	83.2	83.2	86.7	62	68.8	0	1	270	0.00	29.894 
17:35	83.4	83.4	86.8	61	68.5	0	2	270	0.00	29.894 
17:40	83.4	83.4	86.8	61	68.5	0	2	270	0.00	29.894 
17:45	83.2	83.2	86.5	61	68.3	0	2	270	0.00	29.895 
17:50	83.2	83.2	86.5	61	68.3	0	2	270	0.00	29.895 
17:55	83.6	83.6	86.9	60	68.2	0	1	270	0.00	29.895 
18:00	83.4	83.4	86.5	60	68.0	0	1	270	0.00	29.894 
18:05	83.4	83.4	86.8	61	68.5	0	1	270	0.00	29.894 
18:10	83.0	83.0	86.1	61	68.1	0	1	270	0.00	29.894 
18:15	82.8	82.8	85.8	61	67.9	0	1	270	0.00	29.894 
18:20	82.8	82.8	86.1	62	68.4	0	1	270	0.00	29.894 
18:25	82.8	82.8	86.1	62	68.4	0	2	270	0.00	29.894 
18:30	82.8	82.8	86.1	62	68.4	0	2	270	0.00	29.887 
18:35	82.6	82.6	85.7	62	68.2	0	1	270	0.00	29.887 
18:40	82.6	82.6	85.7	62	68.2	0	1	270	0.00	29.887 
18:45	82.4	82.4	85.4	62	68.0	0	1	270	0.00	29.894 
18:50	82.4	82.4	85.6	63	68.5	0	2	270	0.00	29.894 
18:55	82.2	82.2	85.3	63	68.3	0	1	270	0.00	29.894 
19:00	82.0	82.0	85.4	65	69.0	0	1	270	0.00	29.893 
19:05	81.8	81.8	85.3	66	69.3	0	3	270	0.00	29.893 
19:10	81.6	81.6	85.1	67	69.6	1	3	270	0.00	29.893 
19:15	81.6	81.6	85.1	67	69.6	0	1	270	0.00	29.887 
19:20	81.4	81.4	84.8	67	69.4	0	3	270	0.00	29.887 
19:25	81.2	81.2	84.6	68	69.6	0	3	270	0.00	29.887 
19:30	80.9	80.9	84.3	69	69.8	0	2	270	0.00	29.893 
19:35	80.7	80.7	84.0	69	69.6	0	1	270	0.00	29.893 
19:40	80.3	80.3	83.4	70	69.6	0	1	270	0.00	29.893 
19:45	80.1	80.1	83.2	71	69.8	0	2	270	0.00	29.896 
19:50	79.9	79.9	82.9	71	69.6	0	1	270	0.00	29.896 
19:55	79.6	79.6	82.5	72	69.8	0	0	---	0.00	29.896 
20:00	79.4	79.4	82.3	73	70.0	0	0	---	0.00	29.895 
20:05	79.0	79.0	81.7	74	70.0	0	0	---	0.00	29.895 
20:10	78.8	78.8	81.4	74	69.8	0	0	---	0.00	29.895 
20:15	78.5	78.5	81.0	76	70.3	0	0	---	0.00	29.897 
20:20	78.3	78.3	80.7	77	70.5	0	1	270	0.00	29.897 
20:25	77.9	77.9	80.1	77	70.1	0	0	---	0.00	29.897 
20:30	77.7	77.7	79.7	78	70.3	0	1	270	0.00	29.898 
20:35	77.6	77.6	79.6	79	70.6	0	0	---	0.00	29.898 
20:40	77.4	77.4	79.2	80	70.7	0	0	---	0.00	29.898 
20:45	77.0	77.0	78.5	81	70.7	0	0	---	0.00	29.900 
20:50	76.8	76.8	78.2	81	70.5	0	1	270	0.00	29.900 
20:55	76.7	76.7	78.0	82	70.8	0	1	270	0.00	29.900 
21:00	76.5	76.5	77.7	82	70.6	0	0	---	0.00	29.901 
21:05	76.3	76.3	77.2	83	70.7	0	0	---	0.00	29.901 
21:10	76.1	76.1	76.9	83	70.5	0	0	---	0.00	29.901 
21:15	76.0	76.0	76.7	83	70.4	0	0	---	0.00	29.900 
21:20	75.8	75.8	76.3	84	70.6	0	1	270	0.00	29.900 
21:25	75.6	75.6	76.0	84	70.4	0	1	270	0.00	29.900 
21:30	75.4	75.4	75.7	84	70.2	0	0	---	0.00	29.900 
21:35	75.3	75.3	75.4	85	70.5	0	0	---	0.00	29.900 
21:40	75.1	75.1	75.0	85	70.3	0	0	---	0.00	29.900 
21:45	74.9	74.9	74.9	85	70.1	0	0	---	0.00	29.901 
21:50	74.7	74.7	74.7	86	70.2	0	0	---	0.00	29.901 
21:55	74.6	74.6	74.6	86	70.1	0	1	270	0.00	29.901 
22:00	74.4	74.4	74.4	86	69.9	0	0	---	0.00	29.902 
22:05	74.2	74.2	74.2	86	69.7	0	0	---	0.00	29.902 
22:10	73.9	73.9	73.9	86	69.4	0	0	---	0.00	29.902 
22:15	73.9	73.9	73.9	87	69.8	0	0	---	0.00	29.898 
22:20	73.7	73.7	73.7	87	69.6	0	0	---	0.00	29.898 
22:25	73.7	73.7	73.7	87	69.6	0	0	---	0.00	29.898 
22:30	73.5	73.5	73.5	87	69.4	0	0	---	0.00	29.899 
22:35	73.5	73.5	73.5	87	69.4	0	0	---	0.00	29.899 
22:40	73.3	73.3	73.3	87	69.2	0	0	---	0.00	29.899 
22:45	73.3	73.3	73.3	87	69.2	0	0	---	0.00	29.898 
22:50	73.3	73.3	73.3	87	69.2	0	0	---	0.00	29.898 
22:55	73.2	73.2	73.2	87	69.1	0	0	---	0.00	29.898 
23:00	73.2	73.2	73.2	87	69.1	0	1	270	0.00	29.895 
23:05	73.0	73.0	73.0	86	68.6	0	0	---	0.00	29.895 
23:10	73.0	73.0	73.0	86	68.6	0	1	270	0.00	29.895 
23:15	72.8	72.8	72.8	86	68.4	0	0	---	0.00	29.889 
23:20	72.8	72.8	72.8	86	68.4	0	0	---	0.00	29.889 
23:25	72.7	72.7	72.7	86	68.3	0	1	270	0.00	29.889 
23:30	72.7	72.7	72.7	86	68.3	0	0	---	0.00	29.885 
23:35	72.7	72.7	72.7	86	68.3	0	1	270	0.00	29.885 
23:40	72.5	72.5	72.5	86	68.1	0	0	---	0.00	29.885 
23:45	72.5	72.5	72.5	86	68.1	0	0	---	0.00	29.885 
23:50	72.5	72.5	72.5	87	68.4	0	0	---	0.00	29.885 
23:55	72.3	72.3	72.3	87	68.2	0	0	---	0.00	29.885 

CoCoRaHS
IN-AL-39
A2 Web Hosting
Creative Commons License
GoDaddy
search engine by freefind advanced

loaded 2018-11-12 19:48:50 • last modified 2010-11-18 10:43:29
Privacy PolicyDisclaimer
• wx.awcolley.com is powered by PmWiki v.2002016 •
• all content (unless otherwise noted) © 2018 A W Colley